Time;durP1;ratioP1;P1;durP2;ratioP2;P2;SDS_P1;SDS_P2;PMS_P1;PMS_P2;Temp;Humidity;BMP_temperature;BMP_pressure;BME280_temperature;BME280_humidity;BME280_pressure;Samples;Min_cycle;Max_cycle;Signal;HPM_P1;HPM_P2
2023/06/14 00:00:34;;;;;;;;;;;;;;;;;;2597083;22;20289;-94
2023/06/14 00:01:58;;;;;;;;;;;;;;;;;;2599310;22;19970;-93
2023/06/14 00:03:21;;;;;;;;;;;;;;;;;;2597954;22;19903;-94
2023/06/14 00:04:51;;;;;;;;;;;;;;;;;;2599900;22;19918;-94
2023/06/14 00:06:14;;;;;;;;;;;;;;;;;;2583628;22;19912;-95
2023/06/14 00:07:35;;;;;;;;;;;;;;;;;;2592791;22;19903;-94
2023/06/14 00:08:57;;;;;;;;;;;;;;;;;;2610815;22;19903;-94
2023/06/14 00:10:20;;;;;;;;;;;;;;;;;;2604518;22;19903;-95
2023/06/14 00:11:50;;;;;;;;;;;;;;;;;;2612824;22;19891;-95
2023/06/14 00:13:23;;;;;;;;;;;;;;;;;;2603540;22;19903;-95
2023/06/14 00:14:44;;;;;;;;;;;;;;;;;;2603138;22;20033;-96
2023/06/14 00:16:05;;;;;;;;;;;;;;;;;;2574372;22;19922;-94
2023/06/14 00:17:31;;;;;;;;;;;;;;;;;;2599434;22;20285;-95
2023/06/14 00:18:58;;;;;;;;;;;;;;;;;;2597807;22;20202;-95
2023/06/14 00:20:27;;;;;;;;;;;;;;;;;;2600960;22;19915;-94
2023/06/14 00:21:48;;;;;;;;;;;;;;;;;;2598593;22;19904;-95
2023/06/14 00:23:12;;;;;;;;;;;;;;;;;;2599455;22;19904;-95
2023/06/14 00:24:38;;;;;;;;;;;;;;;;;;2597928;22;19918;-95
2023/06/14 00:26:06;;;;;;;;;;;;;;;;;;2583613;22;19943;-94
2023/06/14 00:27:27;;;;;;;;;;;;;;;;;;2587961;23;19911;-94
2023/06/14 00:28:58;;;;;;;;;;;;;;;;;;;;;
2023/06/14 00:30:30;;;;;;;;;;;;;;;;;;2617615;22;19915;-93
2023/06/14 00:31:51;;;;;;;;;;;;;;;;;;2602410;22;19908;-93
2023/06/14 00:33:12;;;;;;;;;;;;;;;;;;2603072;22;19907;-94
2023/06/14 00:34:34;;;;;;;;;;;;;;;;;;2599472;22;19907;-93
2023/06/14 00:35:58;;;;;;;;;;;;;;;;;;2581803;22;19925;-94
2023/06/14 00:37:20;;;;;;;;;;;;;;;;;;2587995;23;19907;-93
2023/06/14 00:38:43;;;;;;;;;;;;;;;;;;2598831;22;19911;-95
2023/06/14 00:40:04;;;;;;;;;;;;;;;;;;2599060;22;19955;-95
2023/06/14 00:41:28;;;;;;;;;;;;;;;;;;2597583;22;19891;-95
2023/06/14 00:42:49;;;;;;;;;;;;;;;;;;2599783;22;19908;-96
2023/06/14 00:44:12;;;;;;;;;;;;;;;;;;2596855;22;19903;-94
2023/06/14 00:45:35;;;;;;;;;;;;;;;;;;2598459;22;19908;-93
2023/06/14 00:46:59;;;;;;;;;;;;;;;;;;2598797;22;19911;-95
2023/06/14 00:48:20;;;;;;;;;;;;;;;;;;2598321;22;19903;-94
2023/06/14 00:49:40;;;;;;;;;;;;;;;;;;2596527;22;19903;-94
2023/06/14 00:51:04;;;;;;;;;;;;;;;;;;2597874;22;19903;-93
2023/06/14 00:52:25;;;;;;;;;;;;;;;;;;2596281;22;19907;-94
2023/06/14 00:53:48;;;;;;;;;;;;;;;;;;2598034;22;19903;-93
2023/06/14 00:55:09;;;;;;;;;;;;;;;;;;2596082;22;19910;-94
2023/06/14 00:56:34;;;;;;;;;;;;;;;;;;2583080;22;19932;-93
2023/06/14 00:57:59;;;;;;;;;;;;;;;;;;2587767;23;19914;-94
2023/06/14 00:59:22;;;;;;;;;;;;;;;;;;2599084;22;19922;-94
2023/06/14 01:00:46;;;;;;;;;;;;;;;;;;2609329;22;19907;-94
2023/06/14 01:02:09;;;;;;;;;;;;;;;;;;2602438;22;19907;-93
2023/06/14 01:03:35;;;;;;;;;;;;;;;;;;2600301;22;19945;-94
2023/06/14 01:05:01;;;;;;;;;;;;;;;;;;2601194;22;19902;-95
2023/06/14 01:06:26;;;;;;;;;;;;;;;;;;2577530;22;19927;-94
2023/06/14 01:07:48;;;;;;;;;;;;;;;;;;2598693;22;19904;-95
2023/06/14 01:09:17;;;;;;;;;;;;;;;;;;2613988;22;19914;-94
2023/06/14 01:10:47;;;;;;;;;;;;;;;;;;2617921;22;19922;-95
2023/06/14 01:12:08;;;;;;;;;;;;;;;;;;2605035;22;19892;-94
2023/06/14 01:13:31;;;;;;;;;;;;;;;;;;2611447;22;19903;-95
2023/06/14 01:14:54;;;;;;;;;;;;;;;;;;2618657;22;19903;-95
2023/06/14 01:16:23;;;;;;;;;;;;;;;;;;2600492;22;19903;-94
2023/06/14 01:17:45;;;;;;;;;;;;;;;;;;2601943;22;19900;-94
2023/06/14 01:19:06;;;;;;;;;;;;;;;;;;2596758;22;19903;-93
2023/06/14 01:20:28;;;;;;;;;;;;;;;;;;2596403;22;19899;-94
2023/06/14 01:21:51;;;;;;;;;;;;;;;;;;2594439;22;19903;-94
2023/06/14 01:23:15;;;;;;;;;;;;;;;;;;2598447;22;19903;-94
2023/06/14 01:24:36;;;;;;;;;;;;;;;;;;2595911;22;19911;-93
2023/06/14 01:25:56;;;;;;;;;;;;;;;;;;2597107;22;19919;-93
2023/06/14 01:27:18;;;;;;;;;;;;;;;;;;2594320;22;19943;-94
2023/06/14 01:28:39;;;;;;;;;;;;;;;;;;2597260;22;19994;-94
2023/06/14 01:30:02;;;;;;;;;;;;;;;;;;2595035;22;19919;-94
2023/06/14 01:31:39;;;;;;;;;;;;;;;;;;2596789;22;19907;-95
2023/06/14 01:33:01;;;;;;;;;;;;;;;;;;2599726;22;19899;-94
2023/06/14 01:34:22;;;;;;;;;;;;;;;;;;2597475;22;19903;-93
2023/06/14 01:35:43;;;;;;;;;;;;;;;;;;2596156;22;19917;-95
2023/06/14 01:37:04;;;;;;;;;;;;;;;;;;2593619;22;19938;-95
2023/06/14 01:38:28;;;;;;;;;;;;;;;;;;2595693;22;19903;-94
2023/06/14 01:39:53;;;;;;;;;;;;;;;;;;2610555;22;20221;-93
2023/06/14 01:41:14;;;;;;;;;;;;;;;;;;2601595;22;19908;-94
2023/06/14 01:42:35;;;;;;;;;;;;;;;;;;2599636;22;19903;-94
2023/06/14 01:43:55;;;;;;;;;;;;;;;;;;2598021;22;19903;-95
2023/06/14 01:45:19;;;;;;;;;;;;;;;;;;2594367;22;19946;-93
2023/06/14 01:46:40;;;;;;;;;;;;;;;;;;2594260;22;19978;-93
2023/06/14 01:48:04;;;;;;;;;;;;;;;;;;2596644;22;19907;-93
2023/06/14 01:49:25;;;;;;;;;;;;;;;;;;2598055;22;19951;-94
2023/06/14 01:50:45;;;;;;;;;;;;;;;;;;2596071;22;20324;-94
2023/06/14 01:52:09;;;;;;;;;;;;;;;;;;2595005;22;19904;-94
2023/06/14 01:53:30;;;;;;;;;;;;;;;;;;2596439;22;19914;-94
2023/06/14 01:54:51;;;;;;;;;;;;;;;;;;2595094;22;20296;-94
2023/06/14 01:56:11;;;;;;;;;;;;;;;;;;2598035;22;20018;-94
2023/06/14 01:57:35;;;;;;;;;;;;;;;;;;2610487;22;19926;-95
2023/06/14 01:58:59;;;;;;;;;;;;;;;;;;2603902;22;19903;-93
2023/06/14 02:00:22;;;;;;;;;;;;;;;;;;2602357;22;19910;-94
2023/06/14 02:01:44;;;;;;;;;;;;;;;;;;2600600;22;19903;-94
2023/06/14 02:03:08;;;;;;;;;;;;;;;;;;2609015;22;19903;-93
2023/06/14 02:04:37;;;;;;;;;;;;;;;;;;2603860;22;19994;-94
2023/06/14 02:06:12;;;;;;;;;;;;;;;;;;2614438;22;19922;-93
2023/06/14 02:07:34;;;;;;;;;;;;;;;;;;2613642;22;19938;-95
2023/06/14 02:08:54;;;;;;;;;;;;;;;;;;2601135;22;19910;-92
2023/06/14 02:10:21;;;;;;;;;;;;;;;;;;2596612;22;19987;-92
2023/06/14 02:11:42;;;;;;;;;;;;;;;;;;2592871;22;19903;-92
2023/06/14 02:13:02;;;;;;;;;;;;;;;;;;2589806;22;19903;-91
2023/06/14 02:14:23;;;;;;;;;;;;;;;;;;2591304;22;19938;-92
2023/06/14 02:15:44;;;;;;;;;;;;;;;;;;2591086;22;19905;-92
2023/06/14 02:17:06;;;;;;;;;;;;;;;;;;2589172;22;20236;-92
2023/06/14 02:18:27;;;;;;;;;;;;;;;;;;2590449;22;19917;-92
2023/06/14 02:19:48;;;;;;;;;;;;;;;;;;2605508;22;19918;-95
2023/06/14 02:21:09;;;;;;;;;;;;;;;;;;2595943;22;19908;-95
2023/06/14 02:22:30;;;;;;;;;;;;;;;;;;2596116;22;19903;-95
2023/06/14 02:23:53;;;;;;;;;;;;;;;;;;2592022;22;19907;-96
2023/06/14 02:25:15;;;;;;;;;;;;;;;;;;2593343;22;19926;-96
2023/06/14 02:26:41;;;;;;;;;;;;;;;;;;2602545;22;19932;-96
2023/06/14 02:28:02;;;;;;;;;;;;;;;;;;2597459;22;19922;-95
2023/06/14 02:29:22;;;;;;;;;;;;;;;;;;2594346;22;19908;-95
2023/06/14 02:30:43;;;;;;;;;;;;;;;;;;2592599;22;19903;-95
2023/06/14 02:32:07;;;;;;;;;;;;;;;;;;2590552;22;19985;-95
2023/06/14 02:33:28;;;;;;;;;;;;;;;;;;2592799;22;19985;-96
2023/06/14 02:34:49;;;;;;;;;;;;;;;;;;2590699;22;19914;-95
2023/06/14 02:36:10;;;;;;;;;;;;;;;;;;2591984;22;19903;-95
2023/06/14 02:37:31;;;;;;;;;;;;;;;;;;2590515;22;19911;-96
2023/06/14 02:38:54;;;;;;;;;;;;;;;;;;2591476;22;20006;-95
2023/06/14 02:40:14;;;;;;;;;;;;;;;;;;2603240;22;19903;-95
2023/06/14 02:41:35;;;;;;;;;;;;;;;;;;2597249;22;19983;-96
2023/06/14 02:42:56;;;;;;;;;;;;;;;;;;2595004;22;20089;-95
2023/06/14 02:44:17;;;;;;;;;;;;;;;;;;2591134;22;20297;-95
2023/06/14 02:45:38;;;;;;;;;;;;;;;;;;2591348;22;20237;-95
2023/06/14 02:47:00;;;;;;;;;;;;;;;;;;2587084;22;20313;-94
2023/06/14 02:48:24;;;;;;;;;;;;;;;;;;2591980;22;19907;-94
2023/06/14 02:49:46;;;;;;;;;;;;;;;;;;2590556;22;19903;-95
2023/06/14 02:51:08;;;;;;;;;;;;;;;;;;2592371;22;19914;-95
2023/06/14 02:52:36;;;;;;;;;;;;;;;;;;2589208;22;19907;-94
2023/06/14 02:53:57;;;;;;;;;;;;;;;;;;2594712;22;19907;-95
2023/06/14 02:55:18;;;;;;;;;;;;;;;;;;2596626;22;20320;-94
2023/06/14 02:56:41;;;;;;;;;;;;;;;;;;2581759;22;19902;-92
2023/06/14 02:58:02;;;;;;;;;;;;;;;;;;2588720;23;19899;-93
2023/06/14 02:59:26;;;;;;;;;;;;;;;;;;2594930;22;19951;-93
2023/06/14 03:00:52;;;;;;;;;;;;;;;;;;2598878;22;19911;-93
2023/06/14 03:02:15;;;;;;;;;;;;;;;;;;2598875;22;19903;-92
2023/06/14 03:03:36;;;;;;;;;;;;;;;;;;2598502;22;19999;-93
2023/06/14 03:05:01;;;;;;;;;;;;;;;;;;2597600;22;19917;-93
2023/06/14 03:06:25;;;;;;;;;;;;;;;;;;2610493;22;19903;-93
2023/06/14 03:07:47;;;;;;;;;;;;;;;;;;2601248;22;19912;-93
2023/06/14 03:09:13;;;;;;;;;;;;;;;;;;2603010;22;19903;-93
2023/06/14 03:10:43;;;;;;;;;;;;;;;;;;2601274;22;19903;-95
2023/06/14 03:12:04;;;;;;;;;;;;;;;;;;2599968;22;19904;-94
2023/06/14 03:13:26;;;;;;;;;;;;;;;;;;2611848;22;19911;-93
2023/06/14 03:14:47;;;;;;;;;;;;;;;;;;2603825;22;19935;-95
2023/06/14 03:16:08;;;;;;;;;;;;;;;;;;2601599;22;20006;-96
2023/06/14 03:17:36;;;;;;;;;;;;;;;;;;2582705;22;19911;-94
2023/06/14 03:18:59;;;;;;;;;;;;;;;;;;2592127;22;19999;-95
2023/06/14 03:20:23;;;;;;;;;;;;;;;;;;2598965;22;19906;-94
2023/06/14 03:21:57;;;;;;;;;;;;;;;;;;2609706;22;19914;-96
2023/06/14 03:23:18;;;;;;;;;;;;;;;;;;2603827;22;19903;-95
2023/06/14 03:24:44;;;;;;;;;;;;;;;;;;2601372;22;19910;-95
2023/06/14 03:26:05;;;;;;;;;;;;;;;;;;2597651;22;19911;-95
2023/06/14 03:27:28;;;;;;;;;;;;;;;;;;2580047;22;20335;-94
2023/06/14 03:28:51;;;;;;;;;;;;;;;;;;2595266;22;19908;-94
2023/06/14 03:30:16;;;;;;;;;;;;;;;;;;2597579;22;19907;-94
2023/06/14 03:31:39;;;;;;;;;;;;;;;;;;2595261;22;19948;-94
2023/06/14 03:33:04;;;;;;;;;;;;;;;;;;2596483;22;19912;-94
2023/06/14 03:34:28;;;;;;;;;;;;;;;;;;2593789;22;20263;-95
2023/06/14 03:35:49;;;;;;;;;;;;;;;;;;2597256;22;19907;-94
2023/06/14 03:37:12;;;;;;;;;;;;;;;;;;2575920;22;19911;-94
2023/06/14 03:38:34;;;;;;;;;;;;;;;;;;2588043;23;19919;-94
2023/06/14 03:39:55;;;;;;;;;;;;;;;;;;2595076;22;19936;-95
2023/06/14 03:41:18;;;;;;;;;;;;;;;;;;2597164;22;19892;-94
2023/06/14 03:42:43;;;;;;;;;;;;;;;;;;2609070;22;19907;-93
2023/06/14 03:44:04;;;;;;;;;;;;;;;;;;2601914;22;19918;-93
2023/06/14 03:45:27;;;;;;;;;;;;;;;;;;2600354;22;20022;-94
2023/06/14 03:46:48;;;;;;;;;;;;;;;;;;2597228;22;19907;-95
2023/06/14 03:48:09;;;;;;;;;;;;;;;;;;2606889;22;19918;-93
2023/06/14 03:49:30;;;;;;;;;;;;;;;;;;2600757;22;19907;-95
2023/06/14 03:50:51;;;;;;;;;;;;;;;;;;2599509;22;19914;-94
2023/06/14 03:52:15;;;;;;;;;;;;;;;;;;2609118;22;19907;-94
2023/06/14 03:53:35;;;;;;;;;;;;;;;;;;2601627;22;20325;-94
2023/06/14 03:54:56;;;;;;;;;;;;;;;;;;2599966;22;19903;-94
2023/06/14 03:56:19;;;;;;;;;;;;;;;;;;2596113;22;19904;-95
2023/06/14 03:57:40;;;;;;;;;;;;;;;;;;2580598;22;19911;-94
2023/06/14 03:59:01;;;;;;;;;;;;;;;;;;2596466;22;19895;-94
2023/06/14 04:00:21;;;;;;;;;;;;;;;;;;2594927;22;20272;-95
2023/06/14 04:01:44;;;;;;;;;;;;;;;;;;2593602;22;19933;-94
2023/06/14 04:03:05;;;;;;;;;;;;;;;;;;2596312;22;20343;-95
2023/06/14 04:04:29;;;;;;;;;;;;;;;;;;2595479;22;19908;-96
2023/06/14 04:05:50;;;;;;;;;;;;;;;;;;2595283;22;20107;-95
2023/06/14 04:07:12;;;;;;;;;;;;;;;;;;2606449;22;20002;-95
2023/06/14 04:08:33;;;;;;;;;;;;;;;;;;2599849;22;19918;-94
2023/06/14 04:09:56;;;;;;;;;;;;;;;;;;2600480;22;19914;-94
2023/06/14 04:11:17;;;;;;;;;;;;;;;;;;2596894;22;19904;-95
2023/06/14 04:12:38;;;;;;;;;;;;;;;;;;2596399;22;19952;-94
2023/06/14 04:13:59;;;;;;;;;;;;;;;;;;2595356;22;19903;-95
2023/06/14 04:15:20;;;;;;;;;;;;;;;;;;2597520;22;19911;-94
2023/06/14 04:16:40;;;;;;;;;;;;;;;;;;2594063;22;19910;-95
2023/06/14 04:18:01;;;;;;;;;;;;;;;;;;2594217;22;19910;-94
2023/06/14 04:19:25;;;;;;;;;;;;;;;;;;2597094;22;19984;-95
2023/06/14 04:20:45;;;;;;;;;;;;;;;;;;2593299;22;19943;-95
2023/06/14 04:22:09;;;;;;;;;;;;;;;;;;2597137;22;19891;-94
2023/06/14 04:23:30;;;;;;;;;;;;;;;;;;2598726;22;19903;-96
2023/06/14 04:24:52;;;;;;;;;;;;;;;;;;2601484;22;19990;-93
2023/06/14 04:26:14;;;;;;;;;;;;;;;;;;2601464;22;20344;-95
2023/06/14 04:27:35;;;;;;;;;;;;;;;;;;2595996;22;19922;-95
2023/06/14 04:29:01;;;;;;;;;;;;;;;;;;2596235;22;19910;-94
2023/06/14 04:30:29;;;;;;;;;;;;;;;;;;2597946;22;19918;-94
2023/06/14 04:31:51;;;;;;;;;;;;;;;;;;2597600;22;19904;-93
2023/06/14 04:33:12;;;;;;;;;;;;;;;;;;2594212;22;19904;-92
2023/06/14 04:34:33;;;;;;;;;;;;;;;;;;2591507;22;20278;-92
2023/06/14 04:35:56;;;;;;;;;;;;;;;;;;2593539;22;19908;-92
2023/06/14 04:37:17;;;;;;;;;;;;;;;;;;2590204;22;19907;-93
2023/06/14 04:38:38;;;;;;;;;;;;;;;;;;2593165;22;19985;-93
2023/06/14 04:39:58;;;;;;;;;;;;;;;;;;2591407;22;19915;-93
2023/06/14 04:41:19;;;;;;;;;;;;;;;;;;2593875;22;19940;-92
2023/06/14 04:42:40;;;;;;;;;;;;;;;;;;2593102;22;19903;-93
2023/06/14 04:44:03;;;;;;;;;;;;;;;;;;2592602;22;19911;-92
2023/06/14 04:45:24;;;;;;;;;;;;;;;;;;2594810;22;19907;-93
2023/06/14 04:46:47;;;;;;;;;;;;;;;;;;2594669;22;19907;-93
2023/06/14 04:48:08;;;;;;;;;;;;;;;;;;2592858;22;19987;-93
2023/06/14 04:49:32;;;;;;;;;;;;;;;;;;2594358;22;19971;-93
2023/06/14 04:50:53;;;;;;;;;;;;;;;;;;2595393;22;19907;-93
2023/06/14 04:52:13;;;;;;;;;;;;;;;;;;2594913;22;19911;-93
2023/06/14 04:53:34;;;;;;;;;;;;;;;;;;2594814;22;20335;-93
2023/06/14 04:54:55;;;;;;;;;;;;;;;;;;2594146;22;19914;-93
2023/06/14 04:56:16;;;;;;;;;;;;;;;;;;2595077;22;19911;-94
2023/06/14 04:57:38;;;;;;;;;;;;;;;;;;2592608;22;19912;-93
2023/06/14 04:58:59;;;;;;;;;;;;;;;;;;2594295;22;19911;-93
2023/06/14 05:00:19;;;;;;;;;;;;;;;;;;2593922;22;19903;-93
2023/06/14 05:01:40;;;;;;;;;;;;;;;;;;2592874;22;20055;-94
2023/06/14 05:03:02;;;;;;;;;;;;;;;;;;2592649;22;19911;-93
2023/06/14 05:04:23;;;;;;;;;;;;;;;;;;2592217;22;20313;-94
2023/06/14 05:05:44;;;;;;;;;;;;;;;;;;2593142;22;20021;-93
2023/06/14 05:07:06;;;;;;;;;;;;;;;;;;2592411;22;19907;-92
2023/06/14 05:08:26;;;;;;;;;;;;;;;;;;2592923;22;20474;-93
2023/06/14 05:09:47;;;;;;;;;;;;;;;;;;2592804;22;19903;-94
2023/06/14 05:11:08;;;;;;;;;;;;;;;;;;2593131;22;19903;-93
2023/06/14 05:12:29;;;;;;;;;;;;;;;;;;2593571;22;19903;-93
2023/06/14 05:13:49;;;;;;;;;;;;;;;;;;2593389;22;19930;-93
2023/06/14 05:15:12;;;;;;;;;;;;;;;;;;2594302;22;19903;-94
2023/06/14 05:16:33;;;;;;;;;;;;;;;;;;2594105;22;19903;-94
2023/06/14 05:17:55;;;;;;;;;;;;;;;;;;2593227;22;19895;-93
2023/06/14 05:19:17;;;;;;;;;;;;;;;;;;2594138;22;19926;-93
2023/06/14 05:20:38;;;;;;;;;;;;;;;;;;2580705;23;19915;-94
2023/06/14 05:21:59;;;;;;;;;;;;;;;;;;2579573;23;20278;-93
2023/06/14 05:23:20;;;;;;;;;;;;;;;;;;2580128;23;19908;-92
2023/06/14 05:24:41;;;;;;;;;;;;;;;;;;2592682;22;19904;-92
2023/06/14 05:26:04;;;;;;;;;;;;;;;;;;2584850;22;19903;-93
2023/06/14 05:27:25;;;;;;;;;;;;;;;;;;2579100;23;19915;-93
2023/06/14 05:28:45;;;;;;;;;;;;;;;;;;2579456;23;19956;-93
2023/06/14 05:30:07;;;;;;;;;;;;;;;;;;2579115;23;19912;-93
2023/06/14 05:31:27;;;;;;;;;;;;;;;;;;2579880;23;19904;-93
2023/06/14 05:32:48;;;;;;;;;;;;;;;;;;2578941;23;19918;-93
2023/06/14 05:34:09;;;;;;;;;;;;;;;;;;2578527;23;19915;-93
2023/06/14 05:35:30;;;;;;;;;;;;;;;;;;2578924;23;19975;-93
2023/06/14 05:36:51;;;;;;;;;;;;;;;;;;2577314;23;19908;-92
2023/06/14 05:38:11;;;;;;;;;;;;;;;;;;2576894;23;20007;-93
2023/06/14 05:39:32;;;;;;;;;;;;;;;;;;2579227;23;19904;-92
2023/06/14 05:40:53;;;;;;;;;;;;;;;;;;2577121;23;19931;-93
2023/06/14 05:42:14;;;;;;;;;;;;;;;;;;2578501;23;19909;-93
2023/06/14 05:43:35;;;;;;;;;;;;;;;;;;2577495;23;19903;-93
2023/06/14 05:44:56;;;;;;;;;;;;;;;;;;2578284;23;20007;-93
2023/06/14 05:46:21;;;;;;;;;;;;;;;;;;2577612;23;19988;-93
2023/06/14 05:47:42;;;;;;;;;;;;;;;;;;2563646;23;19916;-93
2023/06/14 05:49:03;;;;;;;;;;;;;;;;;;2577958;23;19899;-92
2023/06/14 05:50:23;;;;;;;;;;;;;;;;;;2578201;23;19979;-93
2023/06/14 05:51:44;;;;;;;;;;;;;;;;;;2578908;23;19912;-93
2023/06/14 05:53:05;;;;;;;;;;;;;;;;;;2577093;23;19903;-93
2023/06/14 05:54:26;;;;;;;;;;;;;;;;;;2578379;23;19919;-93
2023/06/14 05:55:46;;;;;;;;;;;;;;;;;;2578327;23;19911;-92
2023/06/14 05:57:07;;;;;;;;;;;;;;;;;;2578693;23;19975;-92
2023/06/14 05:58:28;;;;;;;;;;;;;;;;;;2575839;23;19912;-92
2023/06/14 05:59:50;;;;;;;;;;;;;;;;;;2579540;23;19892;-92
2023/06/14 06:01:11;;;;;;;;;;;;;;;;;;2578229;23;19908;-93
2023/06/14 06:02:31;;;;;;;;;;;;;;;;;;2578922;23;19915;-91
2023/06/14 06:03:53;;;;;;;;;;;;;;;;;;2577403;23;20325;-92
2023/06/14 06:05:15;;;;;;;;;;;;;;;;;;2579983;23;19907;-93
2023/06/14 06:06:36;;;;;;;;;;;;;;;;;;2578893;23;20237;-93
2023/06/14 06:07:57;;;;;;;;;;;;;;;;;;2578813;23;19919;-94
2023/06/14 06:09:18;;;;;;;;;;;;;;;;;;2578478;23;19911;-94
2023/06/14 06:10:39;;;;;;;;;;;;;;;;;;2580530;23;20309;-94
2023/06/14 06:12:00;;;;;;;;;;;;;;;;;;2578131;23;20035;-94
2023/06/14 06:13:21;;;;;;;;;;;;;;;;;;2580256;23;19931;-93
2023/06/14 06:14:41;;;;;;;;;;;;;;;;;;2577225;23;19926;-94
2023/06/14 06:16:02;;;;;;;;;;;;;;;;;;2579721;23;20340;-93
2023/06/14 06:17:23;;;;;;;;;;;;;;;;;;2576344;23;19903;-94
2023/06/14 06:18:44;;;;;;;;;;;;;;;;;;2580290;23;19942;-95
2023/06/14 06:20:06;;;;;;;;;;;;;;;;;;2579353;22;19916;-94
2023/06/14 06:21:26;;;;;;;;;;;;;;;;;;2580377;22;19907;-94
2023/06/14 06:22:47;;;;;;;;;;;;;;;;;;2578231;23;19907;-94
2023/06/14 06:24:08;;;;;;;;;;;;;;;;;;2580194;23;20270;-94
2023/06/14 06:25:28;;;;;;;;;;;;;;;;;;2577714;23;19926;-94
2023/06/14 06:26:49;;;;;;;;;;;;;;;;;;2580033;23;19911;-94
2023/06/14 06:28:10;;;;;;;;;;;;;;;;;;2575454;23;19916;-93
2023/06/14 06:29:31;;;;;;;;;;;;;;;;;;2579978;23;19915;-94
2023/06/14 06:30:53;;;;;;;;;;;;;;;;;;2574981;23;19908;-93
2023/06/14 06:32:14;;;;;;;;;;;;;;;;;;2578350;23;20332;-95
2023/06/14 06:33:36;;;;;;;;;;;;;;;;;;2578445;23;19950;-95
2023/06/14 06:34:59;;;;;;;;;;;;;;;;;;2579989;23;19982;-94
2023/06/14 06:36:21;;;;;;;;;;;;;;;;;;2579339;23;19915;-93
2023/06/14 06:37:41;;;;;;;;;;;;;;;;;;2578078;23;19927;-94
2023/06/14 06:39:09;;;;;;;;;;;;;;;;;;2579946;23;19887;-94
2023/06/14 06:40:29;;;;;;;;;;;;;;;;;;2579767;23;19903;-93
2023/06/14 06:41:50;;;;;;;;;;;;;;;;;;2578572;23;19998;-95
2023/06/14 06:43:13;;;;;;;;;;;;;;;;;;2576790;23;20408;-95
2023/06/14 06:44:34;;;;;;;;;;;;;;;;;;2576673;23;19934;-94
2023/06/14 06:45:55;;;;;;;;;;;;;;;;;;2577331;23;19907;-95
2023/06/14 06:47:15;;;;;;;;;;;;;;;;;;2576187;23;19908;-94
2023/06/14 06:48:36;;;;;;;;;;;;;;;;;;2575545;23;19916;-95
2023/06/14 06:49:57;;;;;;;;;;;;;;;;;;2578137;23;20138;-94
2023/06/14 06:51:17;;;;;;;;;;;;;;;;;;2577889;23;19911;-94
2023/06/14 06:52:38;;;;;;;;;;;;;;;;;;2576566;23;20250;-95
2023/06/14 06:53:59;;;;;;;;;;;;;;;;;;2575815;23;19914;-92
2023/06/14 06:55:20;;;;;;;;;;;;;;;;;;2579787;23;19919;-92
2023/06/14 06:56:40;;;;;;;;;;;;;;;;;;2574436;23;19904;-93
2023/06/14 06:58:01;;;;;;;;;;;;;;;;;;2577608;23;19923;-93
2023/06/14 06:59:22;;;;;;;;;;;;;;;;;;2577438;23;19962;-92
2023/06/14 07:00:42;;;;;;;;;;;;;;;;;;2575944;23;19915;-92
2023/06/14 07:02:09;;;;;;;;;;;;;;;;;;2576029;23;19911;-92
2023/06/14 07:03:33;;;;;;;;;;;;;;;;;;2578392;23;19915;-92
2023/06/14 07:04:54;;;;;;;;;;;;;;;;;;2577702;23;19926;-92
2023/06/14 07:06:21;;;;;;;;;;;;;;;;;;2577604;23;19903;-95
2023/06/14 07:07:42;;;;;;;;;;;;;;;;;;2578897;23;19911;-95
2023/06/14 07:09:04;;;;;;;;;;;;;;;;;;2576894;23;19907;-94
2023/06/14 07:10:25;;;;;;;;;;;;;;;;;;2580117;23;19990;-94
2023/06/14 07:11:46;;;;;;;;;;;;;;;;;;2574572;23;20399;-95
2023/06/14 07:13:06;;;;;;;;;;;;;;;;;;2580574;23;19972;-94
2023/06/14 07:14:28;;;;;;;;;;;;;;;;;;2577188;23;19910;-94
2023/06/14 07:15:49;;;;;;;;;;;;;;;;;;2581063;23;20309;-95
2023/06/14 07:17:10;;;;;;;;;;;;;;;;;;2576502;23;19907;-95
2023/06/14 07:18:31;;;;;;;;;;;;;;;;;;2576909;23;19915;-95
2023/06/14 07:19:51;;;;;;;;;;;;;;;;;;2578924;22;19904;-93
2023/06/14 07:21:12;;;;;;;;;;;;;;;;;;2593099;22;19911;-95
2023/06/14 07:22:36;;;;;;;;;;;;;;;;;;2591272;22;19927;-94
2023/06/14 07:23:57;;;;;;;;;;;;;;;;;;2594564;22;20372;-91
2023/06/14 07:25:19;;;;;;;;;;;;;;;;;;2591728;22;19903;-91
2023/06/14 07:26:40;;;;;;;;;;;;;;;;;;2593520;22;19979;-91
2023/06/14 07:28:04;;;;;;;;;;;;;;;;;;2589478;22;20009;-94
2023/06/14 07:29:26;;;;;;;;;;;;;;;;;;2594483;22;19958;-94
2023/06/14 07:30:48;;;;;;;;;;;;;;;;;;2592936;22;19903;-92
2023/06/14 07:32:09;;;;;;;;;;;;;;;;;;2593930;22;19910;-92
2023/06/14 07:33:29;;;;;;;;;;;;;;;;;;2591710;22;19927;-91
2023/06/14 07:34:50;;;;;;;;;;;;;;;;;;2591937;22;19907;-90
2023/06/14 07:36:11;;;;;;;;;;;;;;;;;;2592195;22;20244;-93
2023/06/14 07:37:32;;;;;;;;;;;;;;;;;;2593739;22;19903;-94
2023/06/14 07:38:52;;;;;;;;;;;;;;;;;;2592690;22;19916;-94
2023/06/14 07:40:13;;;;;;;;;;;;;;;;;;2592176;22;19911;-94
2023/06/14 07:41:34;;;;;;;;;;;;;;;;;;2593667;22;19918;-94
2023/06/14 07:42:55;;;;;;;;;;;;;;;;;;2592297;22;19907;-94
2023/06/14 07:44:16;;;;;;;;;;;;;;;;;;2594883;22;19903;-94
2023/06/14 07:45:36;;;;;;;;;;;;;;;;;;2592632;22;20355;-94
2023/06/14 07:46:59;;;;;;;;;;;;;;;;;;2594710;22;19929;-95
2023/06/14 10:05:46;;;;;;;;;;;;;;;;;;2560209;23;19943;-82
2023/06/14 10:08:50;;;;;;;;;;;;;;;;;;2530798;23;20350;-83
2023/06/14 10:11:52;;;;;;;;;;;;;;;;;;2534485;23;19909;-85
2023/06/14 10:13:13;;;;;;;;;;;;;;;;;;2521966;23;19949;-85
2023/06/14 10:14:34;;;;;;;;;;;;;;;;;;2554763;23;20250;-85
2023/06/14 10:15:54;;;;;;;;;;;;;;;;;;2565183;23;19904;-83
2023/06/14 10:17:15;;;;;;;;;;;;;;;;;;2556146;23;20273;-85
2023/06/14 10:18:36;;;;;;;;;;;;;;;;;;2557565;23;19904;-86
2023/06/14 10:20:03;;;;;;;;;;;;;;;;;;2563943;23;19916;-85
2023/06/14 10:28:58;;;;;;;;;;;;;;;;;;2482641;23;20253;-83
2023/06/14 10:45:32;;;;;;;;;;;;;;;;;;2451687;24;19911;-85
2023/06/14 11:31:22;;;;;;;;;;;;;;;;;;2592118;22;19926;-82
2023/06/14 11:32:43;;;;;;;;;;;;;;;;;;2606082;22;19907;-84
2023/06/14 11:34:05;;;;;;;;;;;;;;;;;;2596042;22;19907;-83
2023/06/14 11:37:26;;;;;;;;;;;;;;;;;;2580714;22;19904;-86
2023/06/14 11:39:05;;;;;;;;;;;;;;;;;;2606259;22;19903;-84
2023/06/14 14:39:50;;;;;;;;;;;;;;;;;;2605501;22;19910;-87
2023/06/14 14:46:36;;;;;;;;;;;;;;;;;;2590440;22;19956;-81
2023/06/14 20:45:18;;;;;;;;;;;;;;;;;;2599122;22;19939;-95
2023/06/14 20:46:42;;;;;;;;;;;;;;;;;;2599571;22;19911;-96
2023/06/14 20:48:03;;;;;;;;;;;;;;;;;;2596404;22;19914;-96
2023/06/14 20:49:31;;;;;;;;;;;;;;;;;;2593357;22;19899;-96
2023/06/14 20:50:52;;;;;;;;;;;;;;;;;;2594837;22;19918;-96
2023/06/14 20:52:13;;;;;;;;;;;;;;;;;;2591966;22;20221;-96
2023/06/14 20:53:34;;;;;;;;;;;;;;;;;;2572797;22;19915;-94
2023/06/14 20:54:57;;;;;;;;;;;;;;;;;;2580776;23;19938;-94
2023/06/14 20:56:23;;;;;;;;;;;;;;;;;;2589661;22;19904;-94
2023/06/14 20:57:52;;;;;;;;;;;;;;;;;;2590441;22;20313;-94
2023/06/14 20:59:16;;;;;;;;;;;;;;;;;;2591664;22;19907;-92
2023/06/14 21:00:39;;;;;;;;;;;;;;;;;;2594570;22;19903;-93
2023/06/14 21:02:03;;;;;;;;;;;;;;;;;;2590266;22;19930;-94
2023/06/14 21:03:26;;;;;;;;;;;;;;;;;;2578976;22;19911;-94
2023/06/14 21:04:54;;;;;;;;;;;;;;;;;;2589149;22;20515;-96
2023/06/14 21:06:15;;;;;;;;;;;;;;;;;;2594030;22;19911;-93
2023/06/14 21:07:36;;;;;;;;;;;;;;;;;;2590134;22;19969;-93
2023/06/14 21:08:57;;;;;;;;;;;;;;;;;;2590502;22;19908;-92
2023/06/14 21:10:17;;;;;;;;;;;;;;;;;;2590150;22;19910;-93
2023/06/14 21:11:38;;;;;;;;;;;;;;;;;;2590610;22;19919;-92
2023/06/14 21:12:59;;;;;;;;;;;;;;;;;;2588606;22;19929;-93
2023/06/14 21:14:20;;;;;;;;;;;;;;;;;;2589399;22;19961;-93
2023/06/14 21:15:40;;;;;;;;;;;;;;;;;;2588247;22;19963;-93
2023/06/14 21:17:01;;;;;;;;;;;;;;;;;;2588377;22;19914;-93
2023/06/14 21:18:22;;;;;;;;;;;;;;;;;;2587912;22;20185;-93
2023/06/14 21:19:42;;;;;;;;;;;;;;;;;;2590186;22;19914;-94
2023/06/14 21:21:03;;;;;;;;;;;;;;;;;;2587905;22;20368;-93
2023/06/14 21:22:24;;;;;;;;;;;;;;;;;;2590364;22;19918;-93
2023/06/14 21:23:45;;;;;;;;;;;;;;;;;;2588039;22;19922;-93
2023/06/14 21:25:05;;;;;;;;;;;;;;;;;;2590364;22;19911;-94
2023/06/14 21:26:26;;;;;;;;;;;;;;;;;;2589480;22;20231;-94
2023/06/14 21:27:47;;;;;;;;;;;;;;;;;;2589027;22;20277;-93
2023/06/14 21:29:08;;;;;;;;;;;;;;;;;;2588125;22;19907;-93
2023/06/14 21:30:29;;;;;;;;;;;;;;;;;;2589248;22;19918;-94
2023/06/14 21:31:50;;;;;;;;;;;;;;;;;;2587246;22;20415;-93
2023/06/14 21:33:10;;;;;;;;;;;;;;;;;;2589515;22;20249;-93
2023/06/14 21:34:31;;;;;;;;;;;;;;;;;;2587457;22;19915;-92
2023/06/14 21:35:52;;;;;;;;;;;;;;;;;;2593927;22;19919;-93
2023/06/14 21:37:14;;;;;;;;;;;;;;;;;;2591993;22;20410;-92
2023/06/14 21:38:35;;;;;;;;;;;;;;;;;;2594324;22;19903;-92
2023/06/14 21:39:56;;;;;;;;;;;;;;;;;;2592525;22;19934;-92
2023/06/14 21:41:16;;;;;;;;;;;;;;;;;;2593688;22;19907;-92
2023/06/14 21:42:37;;;;;;;;;;;;;;;;;;2592056;22;19905;-92
2023/06/14 21:43:58;;;;;;;;;;;;;;;;;;2592252;22;20253;-92
2023/06/14 21:45:19;;;;;;;;;;;;;;;;;;2591321;22;19903;-92
2023/06/14 21:46:39;;;;;;;;;;;;;;;;;;2594296;22;20376;-93
2023/06/14 21:48:00;;;;;;;;;;;;;;;;;;2590897;22;20487;-93
2023/06/14 21:49:21;;;;;;;;;;;;;;;;;;2593687;22;19908;-91
2023/06/14 21:50:41;;;;;;;;;;;;;;;;;;2589724;22;19904;-93
2023/06/14 21:52:03;;;;;;;;;;;;;;;;;;2592673;22;20371;-93
2023/06/14 21:53:23;;;;;;;;;;;;;;;;;;2589607;22;19911;-93